Time;durP1;ratioP1;P1;durP2;ratioP2;P2;SDS_P1;SDS_P2;PMS_P1;PMS_P2;Temp;Humidity;BMP_temperature;BMP_pressure;BME280_temperature;BME280_humidity;BME280_pressure;Samples;Min_cycle;Max_cycle;Signal;HPM_P1;HPM_P2
2021/01/10 00:01:33;;;;;;;43.13;32.70;;;2.30;52.90;;;;;;4996793;28;20227;-72
2021/01/10 00:03:59;;;;;;;43.77;34.67;;;2.40;52.90;;;;;;5001418;28;20175;-72
2021/01/10 00:06:24;;;;;;;35.93;32.43;;;2.30;53.10;;;;;;5014244;28;20249;-71
2021/01/10 00:08:50;;;;;;;40.00;35.70;;;2.30;52.70;;;;;;5014157;28;20211;-72
2021/01/10 00:11:16;;;;;;;37.63;33.60;;;2.30;53.40;;;;;;5014268;28;20167;-72
2021/01/10 00:13:41;;;;;;;41.40;36.03;;;2.30;53.90;;;;;;5014273;28;20168;-71
2021/01/10 00:16:07;;;;;;;38.10;34.03;;;2.30;54.00;;;;;;5014173;28;20660;-71
2021/01/10 00:18:32;;;;;;;38.83;35.03;;;2.30;54.10;;;;;;5014250;28;20692;-72
2021/01/10 00:20:58;;;;;;;42.43;37.97;;;2.30;54.50;;;;;;5014032;28;20176;-72
2021/01/10 00:23:23;;;;;;;42.07;38.20;;;2.40;54.20;;;;;;5014158;28;20183;-71
2021/01/10 00:25:51;;;;;;;38.93;34.77;;;2.30;54.50;;;;;;5013603;28;20176;-72
2021/01/10 00:28:17;;;;;;;37.08;33.25;;;2.30;54.40;;;;;;5013901;28;20278;-72
2021/01/10 00:30:42;;;;;;;42.00;37.57;;;2.40;54.10;;;;;;5013948;28;20258;-71
2021/01/10 00:33:08;;;;;;;39.53;35.70;;;2.30;54.50;;;;;;5013834;28;20174;-71
2021/01/10 00:35:33;;;;;;;43.00;38.87;;;2.30;54.20;;;;;;5013619;28;20182;-72
2021/01/10 00:37:59;;;;;;;41.83;37.93;;;2.30;54.10;;;;;;5013841;28;20191;-72
2021/01/10 00:40:26;;;;;;;46.03;41.87;;;2.30;54.20;;;;;;5013864;28;20665;-72
2021/01/10 00:42:52;;;;;;;44.42;39.67;;;2.40;53.90;;;;;;5013665;28;20851;-71
2021/01/10 00:45:18;;;;;;;44.87;39.60;;;2.30;54.70;;;;;;5013623;28;20186;-72
2021/01/10 00:47:44;;;;;;;42.67;38.17;;;2.30;55.40;;;;;;5012309;28;20260;-72
2021/01/10 00:50:11;;;;;;;43.17;39.45;;;2.30;55.70;;;;;;5012381;28;20175;-71
2021/01/10 00:52:36;;;;;;;46.17;42.38;;;2.40;55.20;;;;;;5012032;28;20183;-71
2021/01/10 00:55:03;;;;;;;45.87;41.10;;;2.40;55.10;;;;;;5013750;28;20171;-72
2021/01/10 00:57:29;;;;;;;39.33;35.47;;;2.30;54.90;;;;;;5013511;28;20182;-72
2021/01/10 00:59:55;;;;;;;44.87;40.70;;;2.40;54.40;;;;;;5013649;28;20179;-72
2021/01/10 01:02:20;;;;;;;45.83;41.50;;;2.40;53.90;;;;;;5011986;28;20179;-72
2021/01/10 01:04:47;;;;;;;46.23;41.77;;;2.40;53.70;;;;;;5012826;28;20406;-71
2021/01/10 01:07:13;;;;;;;41.42;35.47;;;2.40;53.20;;;;;;5013169;28;20292;-72
2021/01/10 01:09:38;;;;;;;43.30;39.10;;;2.40;54.00;;;;;;5013424;28;20378;-71
2021/01/10 01:12:05;;;;;;;48.83;43.77;;;2.40;53.90;;;;;;5013354;28;20178;-72
2021/01/10 01:14:31;;;;;;;43.80;39.60;;;2.40;53.40;;;;;;5013455;28;20573;-72
2021/01/10 01:16:56;;;;;;;51.20;46.03;;;2.40;53.70;;;;;;5012705;28;20207;-72
2021/01/10 01:19:22;;;;;;;47.60;42.70;;;2.40;53.60;;;;;;5013189;28;20190;-71
2021/01/10 01:21:54;;;;;;;48.10;43.30;;;2.30;53.90;;;;;;5013346;28;20198;-71
2021/01/10 01:24:22;;;;;;;47.75;40.65;;;2.30;55.10;;;;;;5012126;28;20187;-71
2021/01/10 01:26:48;;;;;;;52.53;47.30;;;2.30;55.60;;;;;;5007076;28;20211;-71
2021/01/10 01:29:15;;;;;;;49.10;43.63;;;2.20;57.00;;;;;;4994157;28;20203;-71
2021/01/10 01:31:40;;;;;;;47.08;41.22;;;2.10;57.10;;;;;;4994070;28;20183;-71
2021/01/10 01:34:06;;;;;;;60.27;40.67;;;2.10;57.70;;;;;;4993701;28;20575;-72
2021/01/10 01:36:32;;;;;;;46.67;41.73;;;2.00;59.40;;;;;;4994998;28;20180;-71
2021/01/10 01:38:59;;;;;;;50.30;38.23;;;2.00;61.00;;;;;;4995304;28;20271;-71
2021/01/10 01:41:26;;;;;;;54.65;38.80;;;1.90;63.60;;;;;;4992088;28;20630;-72
2021/01/10 01:43:52;;;;;;;54.65;35.58;;;1.90;65.80;;;;;;4992931;28;20194;-71
2021/01/10 01:46:35;;;;;;;41.47;32.67;;;1.90;66.50;;;;;;4994963;28;20223;-71
2021/01/10 01:49:06;;;;;;;45.67;37.22;;;1.70;69.70;;;;;;4993670;28;20206;-71
2021/01/10 01:51:34;;;;;;;56.17;40.70;;;1.70;72.60;;;;;;4995399;28;20528;-71
2021/01/10 01:53:59;;;;;;;49.17;37.50;;;1.70;73.00;;;;;;4994996;28;20191;-71
2021/01/10 01:56:25;;;;;;;46.83;33.27;;;1.70;73.50;;;;;;4994916;28;20644;-71
2021/01/10 01:59:08;;;;;;;43.25;31.95;;;1.70;73.70;;;;;;4995127;28;20434;-71
2021/01/10 02:01:37;;;;;;;42.45;34.05;;;1.80;73.70;;;;;;4994100;28;20212;-71
2021/01/10 02:04:35;;;;;;;41.92;33.20;;;1.80;72.80;;;;;;4994705;28;20171;-71
2021/01/10 02:07:22;;;;;;;44.55;35.25;;;1.90;72.40;;;;;;4983401;28;20219;-71
2021/01/10 02:09:56;;;;;;;43.63;39.08;;;2.00;69.40;;;;;;4995030;28;20199;-71
2021/01/10 02:12:25;;;;;;;40.75;33.63;;;1.80;68.80;;;;;;4995258;28;20227;-71
2021/01/10 02:14:58;;;;;;;43.20;35.42;;;1.90;68.50;;;;;;4994656;28;20168;-71
2021/01/10 02:17:26;;;;;;;39.50;32.20;;;1.90;67.50;;;;;;4994651;28;20631;-71
2021/01/10 02:20:05;;;;;;;48.30;37.22;;;1.90;66.60;;;;;;4994875;28;20521;-71
2021/01/10 02:22:49;;;;;;;46.17;35.67;;;2.00;66.00;;;;;;4994507;28;20214;-71
2021/01/10 02:25:14;;;;;;;38.60;34.05;;;2.10;64.20;;;;;;4994127;28;20172;-71
2021/01/10 02:27:41;;;;;;;41.90;37.07;;;2.10;62.60;;;;;;4994220;28;20294;-71
2021/01/10 02:30:08;;;;;;;41.67;36.55;;;2.10;61.90;;;;;;4994712;28;20172;-72
2021/01/10 02:32:35;;;;;;;40.50;36.22;;;2.20;60.40;;;;;;4994836;28;20184;-71
2021/01/10 02:35:02;;;;;;;42.95;36.00;;;2.20;59.20;;;;;;4994839;28;20226;-71
2021/01/10 02:37:43;;;;;;;49.15;38.78;;;2.20;57.20;;;;;;4992692;28;20291;-71
2021/01/10 02:40:23;;;;;;;46.65;42.25;;;2.10;56.50;;;;;;4994528;28;20176;-71
2021/01/10 02:43:10;;;;;;;48.20;42.97;;;2.20;56.40;;;;;;4994618;28;20262;-71
2021/01/10 02:45:40;;;;;;;43.08;38.40;;;2.20;56.50;;;;;;4994576;28;20164;-71
2021/01/10 02:48:07;;;;;;;47.22;41.33;;;2.20;56.20;;;;;;4994058;28;20214;-71
2021/01/10 02:50:34;;;;;;;43.13;38.85;;;2.30;55.60;;;;;;4994485;28;20262;-72
2021/01/10 02:52:59;;;;;;;38.67;34.22;;;2.30;54.80;;;;;;4993214;28;20176;-72
2021/01/10 02:55:25;;;;;;;43.60;39.17;;;2.30;54.50;;;;;;4994405;28;20529;-72
2021/01/10 02:57:58;;;;;;;42.67;38.77;;;2.30;54.70;;;;;;4994301;28;20623;-71
2021/01/10 03:00:26;;;;;;;38.50;34.67;;;2.30;54.50;;;;;;4994699;28;20594;-71
2021/01/10 03:02:54;;;;;;;40.42;36.47;;;2.40;53.90;;;;;;4994113;28;20249;-71
2021/01/10 03:05:22;;;;;;;44.25;35.45;;;2.40;53.80;;;;;;4994281;28;20258;-71
2021/01/10 03:07:48;;;;;;;46.55;41.60;;;2.40;53.10;;;;;;4993689;28;20203;-72
2021/01/10 03:10:13;;;;;;;45.70;41.47;;;2.40;53.20;;;;;;4994492;28;20241;-72
2021/01/10 03:12:40;;;;;;;44.67;40.10;;;2.40;52.80;;;;;;4993325;28;20219;-71
2021/01/10 03:15:07;;;;;;;46.63;42.05;;;2.40;52.50;;;;;;4993877;28;20193;-72
2021/01/10 03:17:49;;;;;;;43.38;39.17;;;2.40;51.90;;;;;;4992684;28;20188;-72
2021/01/10 03:20:22;;;;;;;44.80;40.13;;;2.40;52.00;;;;;;4994284;28;20562;-72
2021/01/10 03:22:49;;;;;;;38.20;34.35;;;2.40;51.20;;;;;;4994472;28;20632;-72
2021/01/10 03:25:18;;;;;;;40.08;34.03;;;2.40;51.40;;;;;;4993909;28;20204;-71
2021/01/10 03:27:44;;;;;;;43.03;38.53;;;2.40;51.30;;;;;;4993491;28;20214;-71
2021/01/10 03:30:12;;;;;;;38.80;34.87;;;2.40;51.30;;;;;;4994085;28;20247;-71
2021/01/10 03:32:38;;;;;;;36.65;31.23;;;2.40;51.30;;;;;;4993965;28;20169;-71
2021/01/10 03:35:05;;;;;;;37.70;33.80;;;2.40;50.50;;;;;;4994295;28;20188;-71
2021/01/10 03:37:31;;;;;;;39.30;34.97;;;2.40;51.00;;;;;;4995070;28;20176;-71
2021/01/10 03:39:56;;;;;;;38.97;35.20;;;2.50;50.70;;;;;;4997389;28;20648;-71
2021/01/10 03:42:22;;;;;;;41.07;37.70;;;2.40;49.90;;;;;;5012597;28;20180;-71
2021/01/10 03:44:48;;;;;;;38.03;34.10;;;2.40;50.20;;;;;;4997737;28;20709;-71
2021/01/10 03:47:13;;;;;;;41.15;37.75;;;2.40;50.80;;;;;;4997543;28;20203;-71
2021/01/10 03:49:39;;;;;;;34.17;30.87;;;2.40;51.10;;;;;;4997628;28;20511;-71
2021/01/10 03:52:05;;;;;;;34.80;31.53;;;2.40;51.90;;;;;;4997663;28;20242;-71
2021/01/10 03:54:30;;;;;;;36.67;32.97;;;2.40;51.90;;;;;;4997142;28;20171;-71
2021/01/10 03:56:56;;;;;;;36.70;32.70;;;2.30;52.00;;;;;;4997121;28;20176;-71
2021/01/10 03:59:22;;;;;;;32.13;28.80;;;2.20;53.50;;;;;;4997187;28;20434;-71
2021/01/10 04:01:48;;;;;;;33.70;30.57;;;2.30;54.00;;;;;;4997131;28;20426;-71
2021/01/10 04:04:13;;;;;;;38.60;34.90;;;2.30;54.60;;;;;;4996955;28;20179;-71
2021/01/10 04:06:39;;;;;;;45.33;41.17;;;2.30;54.50;;;;;;4996802;28;20270;-71
2021/01/10 04:09:05;;;;;;;46.80;42.60;;;2.30;53.70;;;;;;4996779;28;20218;-71
2021/01/10 04:11:30;;;;;;;39.63;36.43;;;2.30;53.40;;;;;;4996929;28;20172;-71
2021/01/10 04:13:56;;;;;;;39.13;35.63;;;2.30;53.20;;;;;;4996988;28;20411;-71
2021/01/10 04:16:21;;;;;;;41.67;35.83;;;2.30;53.70;;;;;;4996636;28;20179;-71
2021/01/10 04:18:47;;;;;;;39.70;36.00;;;2.30;53.50;;;;;;4996741;28;20278;-71
2021/01/10 04:21:13;;;;;;;42.20;37.90;;;2.30;53.90;;;;;;4997272;28;20176;-71
2021/01/10 04:23:38;;;;;;;34.27;30.30;;;2.30;53.90;;;;;;4996996;28;20221;-71
2021/01/10 04:26:04;;;;;;;35.97;32.07;;;2.30;53.90;;;;;;4996426;28;20171;-71
2021/01/10 04:28:30;;;;;;;37.63;33.93;;;2.30;54.50;;;;;;4996391;28;20187;-71
2021/01/10 04:30:56;;;;;;;35.20;31.40;;;2.30;54.80;;;;;;4996737;28;20176;-71
2021/01/10 04:33:22;;;;;;;37.30;33.60;;;2.30;55.10;;;;;;4995619;28;20411;-71
2021/01/10 04:35:48;;;;;;;37.67;34.08;;;2.30;54.60;;;;;;4996657;28;20164;-71
2021/01/10 04:38:13;;;;;;;38.27;34.30;;;2.30;54.70;;;;;;4996694;28;20740;-71
2021/01/10 04:40:39;;;;;;;39.70;35.83;;;2.30;54.90;;;;;;4996378;28;20434;-71
2021/01/10 04:43:05;;;;;;;44.70;32.40;;;2.40;54.80;;;;;;4996646;28;20175;-71
2021/01/10 04:45:30;;;;;;;44.50;40.10;;;2.40;54.20;;;;;;4996382;28;20254;-72
2021/01/10 04:47:56;;;;;;;43.73;39.73;;;2.40;54.00;;;;;;4995807;28;20204;-71
2021/01/10 04:50:24;;;;;;;48.90;41.67;;;2.40;53.40;;;;;;4996399;28;20164;-71
2021/01/10 04:52:53;;;;;;;41.65;37.35;;;2.50;53.30;;;;;;4996704;28;20466;-71
2021/01/10 04:55:20;;;;;;;41.05;36.72;;;2.40;52.80;;;;;;4996121;28;20215;-71
2021/01/10 04:57:49;;;;;;;46.38;38.75;;;2.50;52.80;;;;;;4996089;28;20163;-71
2021/01/10 05:00:16;;;;;;;47.08;41.97;;;2.50;53.00;;;;;;4996357;28;20689;-71
2021/01/10 05:02:47;;;;;;;48.20;43.45;;;2.50;51.90;;;;;;4995207;28;20180;-71
2021/01/10 05:05:14;;;;;;;53.60;48.05;;;2.60;51.30;;;;;;4996510;28;20172;-71
2021/01/10 05:07:42;;;;;;;48.42;43.63;;;2.50;51.60;;;;;;4995441;28;20206;-71
2021/01/10 05:10:08;;;;;;;45.58;40.53;;;2.60;51.70;;;;;;4995759;28;20171;-71
2021/01/10 05:12:34;;;;;;;46.38;41.30;;;2.50;50.80;;;;;;4996033;28;20557;-71
2021/01/10 05:15:00;;;;;;;44.17;39.37;;;2.50;51.00;;;;;;4996254;28;20183;-71
2021/01/10 05:17:25;;;;;;;46.27;36.03;;;2.50;51.60;;;;;;4996034;28;20172;-71
2021/01/10 05:19:52;;;;;;;49.30;36.53;;;2.50;52.30;;;;;;4996198;28;20192;-71
2021/01/10 05:22:20;;;;;;;46.00;40.95;;;2.50;52.70;;;;;;4995810;28;20179;-71
2021/01/10 05:24:47;;;;;;;58.83;38.05;;;2.50;52.90;;;;;;4995860;28;20223;-71
2021/01/10 05:27:13;;;;;;;50.28;42.25;;;2.50;52.90;;;;;;4995508;28;20249;-71
2021/01/10 05:29:42;;;;;;;51.27;42.80;;;2.50;52.60;;;;;;4995866;28;20674;-71
2021/01/10 05:32:09;;;;;;;48.40;39.35;;;2.60;52.50;;;;;;4995963;28;20168;-71
2021/01/10 05:34:35;;;;;;;53.70;48.08;;;2.60;51.60;;;;;;4995727;28;20184;-71
2021/01/10 05:37:16;;;;;;;50.23;42.43;;;2.60;50.70;;;;;;4995281;28;20179;-71
2021/01/10 05:39:45;;;;;;;52.45;40.63;;;2.70;50.50;;;;;;4995501;28;20191;-71
2021/01/10 05:42:12;;;;;;;48.92;41.42;;;2.60;49.40;;;;;;4995391;28;20176;-71
2021/01/10 05:44:43;;;;;;;50.40;40.40;;;2.60;49.50;;;;;;4995305;28;20524;-71
2021/01/10 05:47:13;;;;;;;58.38;45.65;;;2.60;49.10;;;;;;4993644;28;20203;-71
2021/01/10 05:49:58;;;;;;;53.22;44.90;;;2.60;48.80;;;;;;4993913;28;20288;-71
2021/01/10 05:52:25;;;;;;;56.90;40.83;;;2.70;48.50;;;;;;4994918;28;20184;-71
2021/01/10 05:54:55;;;;;;;49.10;41.97;;;2.60;48.50;;;;;;4995501;28;20160;-71
2021/01/10 05:57:29;;;;;;;50.50;43.67;;;2.60;48.30;;;;;;4994742;28;20230;-71
2021/01/10 05:59:56;;;;;;;47.40;42.38;;;2.60;48.40;;;;;;4993191;28;20182;-71
2021/01/10 06:02:32;;;;;;;44.75;37.45;;;2.60;49.00;;;;;;4995214;28;20180;-71
2021/01/10 06:05:12;;;;;;;49.47;39.83;;;2.50;49.70;;;;;;4995237;28;20182;-71
2021/01/10 06:07:39;;;;;;;46.25;37.10;;;2.60;50.20;;;;;;4994386;28;20203;-71
2021/01/10 06:10:06;;;;;;;49.67;39.60;;;2.60;50.60;;;;;;4994887;28;20247;-71
2021/01/10 06:12:33;;;;;;;48.10;40.72;;;2.60;50.20;;;;;;4994785;28;20610;-71
2021/01/10 06:15:17;;;;;;;46.28;40.60;;;2.60;49.60;;;;;;4993620;28;20186;-71
2021/01/10 06:17:44;;;;;;;50.08;42.42;;;2.60;48.70;;;;;;4994836;28;20171;-71
2021/01/10 06:20:30;;;;;;;46.58;41.88;;;2.60;47.80;;;;;;4994665;28;20172;-71
2021/01/10 06:22:57;;;;;;;45.72;40.33;;;2.60;46.80;;;;;;4994696;28;20171;-71
2021/01/10 06:25:26;;;;;;;48.42;43.50;;;2.60;47.50;;;;;;4994712;28;20200;-71
2021/01/10 06:28:00;;;;;;;48.10;42.55;;;2.60;48.50;;;;;;4993348;28;20222;-71
2021/01/10 06:30:31;;;;;;;43.58;35.58;;;2.60;48.60;;;;;;4994844;28;20160;-71
2021/01/10 06:33:04;;;;;;;45.33;34.40;;;2.60;53.00;;;;;;4994390;28;20176;-71
2021/01/10 06:35:38;;;;;;;45.28;34.22;;;2.60;48.40;;;;;;4994396;28;20152;-72
2021/01/10 06:38:06;;;;;;;50.22;32.50;;;2.70;47.90;;;;;;4994337;28;20297;-71
2021/01/10 06:40:33;;;;;;;46.20;35.20;;;2.60;47.90;;;;;;4994734;28;20610;-71
2021/01/10 06:43:02;;;;;;;42.40;35.58;;;2.50;48.70;;;;;;4994871;28;20180;-71
2021/01/10 06:45:37;;;;;;;48.45;36.95;;;2.60;48.80;;;;;;4994354;28;20168;-71
2021/01/10 06:48:06;;;;;;;47.00;38.58;;;2.60;48.30;;;;;;4994483;28;20229;-71
2021/01/10 06:50:32;;;;;;;42.65;38.33;;;2.60;47.50;;;;;;4994703;28;20164;-71
2021/01/10 06:53:07;;;;;;;43.30;38.70;;;2.60;46.90;;;;;;4994484;28;20168;-71
2021/01/10 06:55:34;;;;;;;39.58;35.08;;;2.60;45.90;;;;;;4994374;28;20186;-71
2021/01/10 06:58:06;;;;;;;48.95;43.28;;;2.60;46.00;;;;;;4994050;28;20242;-71
2021/01/10 07:00:51;;;;;;;46.63;39.80;;;2.60;46.60;;;;;;4994300;28;20677;-71
2021/01/10 07:03:17;;;;;;;51.72;46.70;;;2.50;46.40;;;;;;4994467;28;20171;-71
2021/01/10 07:06:08;;;;;;;47.47;43.00;;;2.50;46.80;;;;;;4994286;28;20176;-71
2021/01/10 07:08:33;;;;;;;50.33;41.85;;;2.40;46.70;;;;;;4992680;28;20294;-71
2021/01/10 07:11:21;;;;;;;46.73;42.00;;;2.40;47.00;;;;;;4994499;28;20259;-71
2021/01/10 07:13:47;;;;;;;51.72;44.17;;;2.30;48.40;;;;;;4998293;28;20571;-71
2021/01/10 07:16:23;;;;;;;48.55;43.58;;;2.20;49.20;;;;;;4997760;28;20176;-71
2021/01/10 07:19:03;;;;;;;49.63;42.25;;;2.20;52.20;;;;;;4997864;28;20206;-71
2021/01/10 07:21:32;;;;;;;61.42;47.28;;;2.20;53.90;;;;;;4998044;28;20156;-71
2021/01/10 07:24:13;;;;;;;50.33;45.28;;;2.20;54.40;;;;;;4996877;28;20176;-71
2021/01/10 07:26:56;;;;;;;58.38;49.40;;;2.30;54.60;;;;;;4997419;28;20246;-71
2021/01/10 07:29:34;;;;;;;53.10;44.63;;;2.20;54.50;;;;;;4997764;28;20565;-71
2021/01/10 07:32:03;;;;;;;57.35;51.17;;;2.30;55.10;;;;;;4997868;28;20176;-71
2021/01/10 07:34:30;;;;;;;57.65;51.40;;;2.30;55.00;;;;;;4997890;28;20172;-71
2021/01/10 07:36:58;;;;;;;53.40;44.83;;;2.30;55.20;;;;;;4997385;28;20263;-71
2021/01/10 07:39:26;;;;;;;60.42;49.25;;;2.30;55.60;;;;;;4997383;28;20537;-71
2021/01/10 07:42:13;;;;;;;50.72;45.38;;;2.30;55.20;;;;;;4997496;28;20262;-71
2021/01/10 07:44:50;;;;;;;57.05;45.80;;;2.30;54.00;;;;;;4997384;28;20619;-71
2021/01/10 07:47:17;;;;;;;54.90;48.25;;;2.30;54.30;;;;;;4996271;28;20199;-71
2021/01/10 07:49:53;;;;;;;49.88;44.33;;;2.40;53.80;;;;;;4997793;28;20642;-71
2021/01/10 07:52:41;;;;;;;51.72;41.67;;;2.30;52.90;;;;;;4997655;28;20221;-71
2021/01/10 07:55:28;;;;;;;56.33;42.95;;;2.30;52.70;;;;;;4997442;28;20175;-71
2021/01/10 07:58:15;;;;;;;50.00;44.75;;;2.30;52.40;;;;;;4993354;28;20290;-71
2021/01/10 08:00:46;;;;;;;41.85;36.55;;;2.30;52.50;;;;;;4997408;28;20179;-71
2021/01/10 08:03:23;;;;;;;55.35;42.50;;;2.40;52.10;;;;;;4996923;28;20178;-71
2021/01/10 08:06:06;;;;;;;44.53;39.85;;;2.40;51.20;;;;;;4995872;28;20186;-71
2021/01/10 08:08:45;;;;;;;41.17;36.88;;;2.40;51.10;;;;;;4996869;28;20284;-71
2021/01/10 08:11:12;;;;;;;51.78;46.40;;;2.40;50.90;;;;;;4996960;28;20591;-71
2021/01/10 08:13:44;;;;;;;52.72;44.35;;;2.40;50.30;;;;;;4996771;28;20525;-71
2021/01/10 08:16:28;;;;;;;48.03;41.42;;;2.40;50.00;;;;;;4996602;28;20172;-71
2021/01/10 08:18:53;;;;;;;46.63;39.53;;;2.40;49.20;;;;;;4996790;28;20549;-71
2021/01/10 08:21:19;;;;;;;52.90;43.10;;;2.40;49.30;;;;;;4996943;28;20168;-71
2021/01/10 08:23:53;;;;;;;48.77;43.10;;;2.40;49.70;;;;;;4995912;28;20176;-71
2021/01/10 08:26:18;;;;;;;50.58;42.03;;;2.40;49.80;;;;;;5000255;28;20199;-71
2021/01/10 08:28:52;;;;;;;46.53;40.00;;;2.50;49.40;;;;;;5010911;28;20690;-71
2021/01/10 08:31:29;;;;;;;50.03;42.45;;;2.50;49.10;;;;;;5008588;28;20418;-71
2021/01/10 08:33:59;;;;;;;50.50;45.33;;;2.60;47.30;;;;;;4997161;28;20180;-71
2021/01/10 08:36:25;;;;;;;54.33;41.95;;;2.60;45.80;;;;;;4994622;28;20183;-71
2021/01/10 08:38:53;;;;;;;56.53;37.37;;;2.70;43.40;;;;;;4994721;28;20196;-71
2021/01/10 08:41:29;;;;;;;51.05;39.83;;;2.70;41.00;;;;;;4994365;28;20172;-71
2021/01/10 08:44:05;;;;;;;45.58;39.63;;;2.80;38.80;;;;;;4993262;28;20179;-71
2021/01/10 08:46:37;;;;;;;49.85;41.78;;;2.80;37.50;;;;;;4994354;28;20207;-71
2021/01/10 08:49:03;;;;;;;48.65;40.78;;;2.80;36.60;;;;;;4994511;28;20648;-71
2021/01/10 08:51:39;;;;;;;50.73;45.20;;;2.70;36.00;;;;;;4994439;28;20631;-71
2021/01/10 08:54:10;;;;;;;54.15;44.20;;;2.70;37.00;;;;;;4992969;28;20825;-71
2021/01/10 08:56:36;;;;;;;54.78;49.03;;;2.70;38.60;;;;;;4992417;28;20172;-71
2021/01/10 08:59:04;;;;;;;50.72;45.08;;;2.70;39.00;;;;;;4994115;28;20219;-71
2021/01/10 09:01:29;;;;;;;55.47;45.03;;;2.70;38.80;;;;;;4994192;28;20657;-71
2021/01/10 09:04:05;;;;;;;50.67;45.23;;;2.80;37.90;;;;;;4994346;28;20184;-71
2021/01/10 09:06:34;;;;;;;51.70;46.40;;;2.90;35.30;;;;;;4994233;28;20470;-71
2021/01/10 09:09:12;;;;;;;41.83;37.25;;;2.90;32.00;;;;;;4993482;28;20703;-71
2021/01/10 09:11:41;;;;;;;42.78;35.97;;;2.90;30.60;;;;;;4993635;28;20574;-71
2021/01/10 09:14:11;;;;;;;45.25;39.45;;;2.90;30.60;;;;;;4994024;28;20168;-71
2021/01/10 09:16:38;;;;;;;49.38;42.60;;;3.00;30.50;;;;;;4993757;28;20183;-71
2021/01/10 09:19:06;;;;;;;49.38;43.63;;;3.10;28.90;;;;;;4993932;28;20219;-71
2021/01/10 09:21:31;;;;;;;39.88;35.97;;;3.10;27.70;;;;;;4993898;28;20187;-71
2021/01/10 09:24:01;;;;;;;42.60;33.63;;;3.10;25.90;;;;;;4992446;28;20716;-71
2021/01/10 09:26:35;;;;;;;38.17;34.35;;;3.10;25.10;;;;;;4993751;28;20204;-72
2021/01/10 09:29:02;;;;;;;54.25;36.30;;;3.10;24.90;;;;;;4992664;28;20191;-71
2021/01/10 09:31:42;;;;;;;36.97;33.35;;;3.10;25.00;;;;;;4993795;28;20225;-71
2021/01/10 09:34:08;;;;;;;36.33;32.83;;;3.00;25.00;;;;;;4993317;28;20192;-71
2021/01/10 09:36:34;;;;;;;34.28;30.88;;;3.00;25.60;;;;;;4993354;28;20820;-68
2021/01/10 09:39:00;;;;;;;37.80;34.65;;;3.10;25.70;;;;;;4992164;28;20199;-71
2021/01/10 09:41:26;;;;;;;38.27;34.90;;;3.10;29.10;;;;;;4993352;28;20175;-71
2021/01/10 09:43:55;;;;;;;36.45;32.95;;;3.10;25.40;;;;;;4992794;28;20175;-71
2021/01/10 09:46:35;;;;;;;43.33;39.30;;;3.20;25.10;;;;;;4991942;28;20250;-71
2021/01/10 09:49:07;;;;;;;39.92;36.20;;;3.20;24.70;;;;;;4993497;28;20192;-71
2021/01/10 09:51:42;;;;;;;35.95;33.00;;;3.30;24.10;;;;;;4993502;28;20176;-71
2021/01/10 09:54:16;;;;;;;36.97;33.88;;;3.20;23.60;;;;;;4993397;28;20250;-71
2021/01/10 09:56:52;;;;;;;35.28;31.50;;;3.30;23.20;;;;;;4993210;28;20180;-71
2021/01/10 09:59:44;;;;;;;34.30;31.35;;;3.30;22.90;;;;;;4993166;28;20278;-71
2021/01/10 10:02:14;;;;;;;50.53;46.22;;;3.40;22.60;;;;;;4993574;28;20262;-71
2021/01/10 10:04:45;;;;;;;40.58;33.55;;;3.40;21.80;;;;;;4993220;28;20246;-71
2021/01/10 10:07:11;;;;;;;44.30;35.42;;;3.40;21.30;;;;;;4993498;28;20191;-77
2021/01/10 10:09:48;;;;;;;32.95;29.95;;;3.40;20.20;;;;;;4990084;28;20202;-68
2021/01/10 10:12:15;;;;;;;33.15;29.75;;;3.40;20.00;;;;;;4993161;28;20172;-69
2021/01/10 10:14:56;;;;;;;40.92;36.67;;;3.50;19.60;;;;;;4991748;28;20172;-69
2021/01/10 10:17:25;;;;;;;34.03;31.05;;;3.50;19.10;;;;;;4992530;28;20187;-68
2021/01/10 10:19:51;;;;;;;38.17;34.60;;;3.50;18.90;;;;;;4992725;28;20195;-68
2021/01/10 10:22:31;;;;;;;40.20;33.20;;;3.50;19.00;;;;;;4991410;28;20176;-69
2021/01/10 10:24:58;;;;;;;37.25;33.50;;;3.40;19.00;;;;;;4993166;28;20167;-69
2021/01/10 10:27:25;;;;;;;38.85;34.55;;;3.40;19.70;;;;;;4992922;28;20283;-70
2021/01/10 10:29:51;;;;;;;43.95;39.80;;;3.40;20.30;;;;;;4991777;28;20199;-69
2021/01/10 10:32:16;;;;;;;43.80;39.50;;;3.40;20.60;;;;;;4991594;28;20206;-69
2021/01/10 10:34:42;;;;;;;34.37;30.33;;;3.40;20.60;;;;;;4993026;28;20176;-70
2021/01/10 10:37:08;;;;;;;33.73;30.27;;;3.50;20.50;;;;;;4992703;28;20172;-70
2021/01/10 10:39:37;;;;;;;41.20;37.17;;;3.60;19.80;;;;;;4993086;28;20199;-69
2021/01/10 10:42:09;;;;;;;44.70;40.60;;;3.60;19.40;;;;;;4992874;28;20175;-69
2021/01/10 10:44:35;;;;;;;38.97;35.28;;;3.70;20.20;;;;;;4993027;28;20284;-70
2021/01/10 10:47:00;;;;;;;40.83;36.67;;;3.70;19.20;;;;;;4991262;28;20632;-69
2021/01/10 10:49:28;;;;;;;33.30;29.77;;;3.80;19.20;;;;;;4992768;28;20192;-69
2021/01/10 10:51:54;;;;;;;35.55;31.98;;;3.90;18.30;;;;;;4991766;28;20176;-69
2021/01/10 10:54:19;;;;;;;35.60;31.90;;;4.00;15.70;;;;;;4993026;28;20183;-70
2021/01/10 10:56:48;;;;;;;32.10;27.60;;;4.20;13.30;;;;;;4992932;28;20172;-69
2021/01/10 10:59:13;;;;;;;38.30;29.73;;;4.10;11.00;;;;;;4992974;28;20215;-69
2021/01/10 11:01:41;;;;;;;37.97;32.87;;;4.20;10.70;;;;;;4992898;28;20211;-69
2021/01/10 11:04:06;;;;;;;34.75;31.27;;;4.30;10.20;;;;;;4992569;28;20422;-70
2021/01/10 11:06:33;;;;;;;34.57;30.00;;;4.40;9.30;;;;;;4991651;28;20566;-69
2021/01/10 11:08:58;;;;;;;41.53;30.90;;;4.40;8.80;;;;;;4992410;28;20666;-69
2021/01/10 11:11:33;;;;;;;45.67;33.97;;;4.50;9.40;;;;;;4992369;28;20270;-69
2021/01/10 11:13:59;;;;;;;39.28;32.08;;;4.60;8.50;;;;;;4992488;28;20217;-70
2021/01/10 11:16:37;;;;;;;39.43;35.50;;;4.70;7.00;;;;;;4992324;28;20605;-69
2021/01/10 11:19:04;;;;;;;39.85;35.67;;;4.60;5.90;;;;;;4992567;28;20222;-69
2021/01/10 11:21:34;;;;;;;33.13;29.83;;;4.50;7.20;;;;;;4992414;28;20226;-69
2021/01/10 11:24:00;;;;;;;38.85;34.95;;;4.50;8.30;;;;;;4992519;28;20175;-69
2021/01/10 11:26:26;;;;;;;37.53;32.67;;;4.50;10.40;;;;;;4992150;28;20262;-69
2021/01/10 11:28:51;;;;;;;35.93;32.27;;;4.50;11.10;;;;;;4992261;28;20284;-69
2021/01/10 11:31:18;;;;;;;35.57;32.23;;;4.40;11.40;;;;;;4992330;28;20399;-69
2021/01/10 11:33:44;;;;;;;38.97;35.22;;;4.40;12.40;;;;;;4992406;28;20214;-69
2021/01/10 11:36:10;;;;;;;33.42;30.42;;;4.50;13.70;;;;;;4992250;28;20226;-70
2021/01/10 11:38:36;;;;;;;32.78;29.23;;;4.50;14.40;;;;;;4992336;28;20196;-70
2021/01/10 11:41:11;;;;;;;34.57;30.90;;;4.60;14.70;;;;;;4992546;28;20987;-69
2021/01/10 11:43:38;;;;;;;34.85;31.35;;;4.70;14.40;;;;;;4992359;28;20580;-69
2021/01/10 11:46:08;;;;;;;32.90;29.50;;;4.70;18.80;;;;;;4992179;28;20585;-69
2021/01/10 11:48:35;;;;;;;33.72;27.27;;;4.80;15.50;;;;;;4990873;28;20630;-69
2021/01/10 11:51:02;;;;;;;33.33;30.13;;;4.70;15.40;;;;;;4992518;28;20176;-70
2021/01/10 11:53:28;;;;;;;32.50;29.70;;;4.70;15.80;;;;;;4992221;28;20172;-69
2021/01/10 11:55:53;;;;;;;31.57;28.40;;;4.80;16.50;;;;;;4992303;28;20188;-70
2021/01/10 11:58:19;;;;;;;33.97;31.40;;;4.90;17.90;;;;;;4993015;28;20439;-69
2021/01/10 12:00:48;;;;;;;37.90;35.30;;;4.90;18.30;;;;;;4995935;28;20646;-69
2021/01/10 12:03:14;;;;;;;35.40;32.70;;;5.00;18.30;;;;;;4994572;28;20662;-69
2021/01/10 12:05:40;;;;;;;32.40;29.90;;;5.10;21.10;;;;;;4994091;28;20222;-70
2021/01/10 12:08:06;;;;;;;32.55;29.98;;;5.00;17.00;;;;;;4995268;28;20294;-69
2021/01/10 12:10:35;;;;;;;31.75;29.33;;;4.90;18.70;;;;;;4995709;28;20243;-69
2021/01/10 12:13:04;;;;;;;34.00;31.20;;;4.60;21.60;;;;;;4995858;28;20175;-70
2021/01/10 12:15:33;;;;;;;34.78;32.08;;;4.50;24.90;;;;;;4995617;28;20175;-70
2021/01/10 12:18:03;;;;;;;34.85;32.47;;;4.50;26.50;;;;;;4995894;28;20306;-70
2021/01/10 12:20:31;;;;;;;32.67;29.58;;;4.50;28.00;;;;;;4995691;28;20254;-69
2021/01/10 12:22:56;;;;;;;34.13;31.35;;;4.50;28.60;;;;;;4995672;28;20175;-70
2021/01/10 12:25:22;;;;;;;31.87;29.33;;;4.50;29.90;;;;;;4995476;28;20201;-70
2021/01/10 12:27:48;;;;;;;28.77;26.07;;;4.50;33.00;;;;;;4995334;28;20208;-70
2021/01/10 12:30:15;;;;;;;32.90;30.38;;;4.60;33.20;;;;;;4995633;28;20230;-70
2021/01/10 12:32:41;;;;;;;31.10;28.63;;;4.50;32.50;;;;;;4995638;28;20176;-69
2021/01/10 12:35:12;;;;;;;32.85;30.60;;;4.50;32.40;;;;;;4994002;28;20542;-69
2021/01/10 12:37:38;;;;;;;35.30;31.95;;;4.60;32.80;;;;;;4995403;28;20178;-76
2021/01/10 12:40:06;;;;;;;28.77;26.73;;;4.60;33.00;;;;;;4993136;28;20578;-69
2021/01/10 12:42:33;;;;;;;30.90;28.40;;;4.60;32.00;;;;;;4994097;28;20657;-70
2021/01/10 12:44:59;;;;;;;30.08;27.92;;;4.60;31.60;;;;;;4994179;28;20515;-69
2021/01/10 12:47:25;;;;;;;28.60;26.50;;;4.60;32.20;;;;;;4993850;28;20207;-69
2021/01/10 12:49:51;;;;;;;25.10;23.20;;;4.60;33.20;;;;;;4993565;28;20680;-69